createdAt,value
2022-11-25T00:00:50.652Z,0.10
2022-11-25T00:06:09.056Z,0.04
2022-11-25T00:11:13.847Z,0.03
2022-11-25T00:16:19.515Z,0.01
2022-11-25T00:21:25.741Z,0.02
2022-11-25T00:26:31.981Z,0.01
2022-11-25T00:31:37.744Z,0.03
2022-11-25T00:36:42.044Z,0.04
2022-11-25T00:42:04.614Z,0.04
2022-11-25T00:47:11.883Z,0.02
2022-11-25T00:52:17.577Z,0.00
2022-11-25T00:57:23.728Z,-0.05
2022-11-25T01:02:27.608Z,-0.06
2022-11-25T01:07:31.689Z,-0.02
2022-11-25T01:12:36.089Z,0.01
2022-11-25T01:17:39.735Z,-0.01
2022-11-25T01:22:43.357Z,-0.06
2022-11-25T01:27:47.310Z,-0.07
2022-11-25T01:32:50.973Z,-0.07
2022-11-25T01:37:54.530Z,-0.04
2022-11-25T01:42:57.968Z,-0.03
2022-11-25T01:48:07.405Z,-0.01
2022-11-25T01:53:13.881Z,-0.04
2022-11-25T01:58:21.685Z,-0.05
2022-11-25T02:03:29.193Z,0.01
2022-11-25T02:08:34.077Z,0.06
2022-11-25T02:13:38.380Z,0.11
2022-11-25T02:18:43.796Z,0.17
2022-11-25T02:23:56.922Z,0.17
2022-11-25T02:29:00.397Z,0.15
2022-11-25T02:34:04.124Z,0.13
2022-11-25T02:39:08.450Z,0.11
2022-11-25T02:44:12.081Z,0.04
2022-11-25T02:49:15.859Z,-0.01
2022-11-25T02:54:19.818Z,0.00
2022-11-25T02:59:23.429Z,-0.01
2022-11-25T03:04:27.211Z,-0.02
2022-11-25T03:09:30.695Z,0.00
2022-11-25T03:14:34.571Z,0.05
2022-11-25T03:19:38.483Z,0.11
2022-11-25T03:24:42.894Z,0.13
2022-11-25T03:29:46.314Z,0.16
2022-11-25T03:34:50.200Z,0.18
2022-11-25T03:39:53.814Z,0.18
2022-11-25T03:44:57.376Z,0.19
2022-11-25T03:50:00.967Z,0.26
2022-11-25T03:55:06.103Z,0.35
2022-11-25T04:00:12.617Z,0.39
2022-11-25T04:05:16.521Z,0.35
2022-11-25T04:10:20.675Z,0.33
2022-11-25T04:15:24.276Z,0.33
2022-11-25T04:20:27.881Z,0.34
2022-11-25T04:25:31.496Z,0.37
2022-11-25T04:30:35.036Z,0.41
2022-11-25T04:39:35.272Z,0.52
2022-11-25T04:44:42.178Z,0.55
2022-11-25T04:49:49.510Z,0.61
2022-11-25T04:54:56.569Z,0.69
2022-11-25T05:00:03.883Z,0.75
2022-11-25T05:05:11.703Z,0.79
2022-11-25T05:10:19.618Z,0.79
2022-11-25T05:15:26.824Z,0.81
2022-11-25T05:20:34.136Z,0.84
2022-11-25T05:25:42.565Z,0.86
2022-11-25T05:30:51.861Z,0.86
2022-11-25T05:36:01.150Z,0.88
2022-11-25T05:41:11.211Z,0.89
2022-11-25T05:46:18.895Z,0.85
2022-11-25T05:51:28.373Z,0.85
2022-11-25T05:56:35.385Z,0.84
2022-11-25T06:01:42.720Z,0.83
2022-11-25T06:06:49.630Z,0.83
2022-11-25T06:11:56.520Z,0.84
2022-11-25T06:17:04.530Z,0.87
2022-11-25T06:22:11.483Z,0.91
2022-11-25T06:27:18.559Z,0.94
2022-11-25T06:32:26.596Z,0.99
2022-11-25T06:37:34.507Z,1.02
2022-11-25T06:42:43.606Z,1.02
2022-11-25T06:47:50.861Z,1.04
2022-11-25T06:52:56.315Z,1.09
2022-11-25T06:58:33.932Z,1.14
2022-11-25T07:03:31.132Z,1.17
2022-11-25T07:08:38.107Z,1.19
2022-11-25T07:13:45.715Z,1.22
2022-11-25T07:18:53.187Z,1.26
2022-11-25T07:24:02.178Z,1.33
2022-11-25T07:34:41.547Z,1.41
2022-11-25T07:39:48.564Z,1.43
2022-11-25T07:44:55.564Z,1.47
2022-11-25T07:50:02.747Z,1.52
2022-11-25T07:55:10.818Z,1.58
2022-11-25T08:00:19.841Z,1.67
2022-11-25T08:05:27.335Z,1.76
2022-11-25T08:10:34.315Z,1.81
2022-11-25T08:15:41.379Z,1.85
2022-11-25T08:20:48.670Z,1.93
2022-11-25T08:25:55.842Z,1.97
2022-11-25T08:31:05.099Z,1.97
2022-11-25T08:36:13.339Z,2.00
2022-11-25T08:41:23.409Z,2.07
2022-11-25T08:46:33.843Z,2.12
2022-11-25T08:51:41.491Z,2.15
2022-11-25T08:56:55.895Z,2.15
2022-11-25T09:02:03.301Z,2.19
2022-11-25T09:07:10.404Z,2.18
2022-11-25T09:12:20.447Z,2.18
2022-11-25T09:17:28.968Z,2.21
2022-11-25T09:22:36.432Z,2.24
2022-11-25T09:27:43.954Z,2.27
2022-11-25T09:32:54.174Z,2.32
2022-11-25T09:38:01.267Z,2.36
2022-11-25T09:43:37.854Z,2.44
2022-11-25T09:48:59.650Z,2.52
2022-11-25T09:54:14.462Z,2.53
2022-11-25T09:59:27.383Z,2.54
2022-11-25T10:04:42.066Z,2.62
2022-11-25T10:09:49.690Z,2.66
2022-11-25T10:15:01.250Z,2.70
2022-11-25T10:20:14.437Z,2.72
2022-11-25T10:25:24.694Z,2.77
2022-11-25T10:30:41.148Z,2.89
2022-11-25T10:35:54.267Z,3.04
2022-11-25T10:41:04.124Z,3.09
2022-11-25T10:46:23.327Z,3.14
2022-11-25T10:51:42.299Z,3.24
2022-11-25T10:56:52.902Z,3.29
2022-11-25T11:02:22.573Z,3.34
2022-11-25T11:07:33.408Z,3.38
2022-11-25T11:12:51.334Z,3.42
2022-11-25T11:18:00.124Z,3.53
2022-11-25T11:23:11.193Z,3.63
2022-11-25T11:28:41.170Z,3.68
2022-11-25T11:34:11.909Z,3.69
2022-11-25T11:39:36.797Z,3.68
2022-11-25T11:44:58.967Z,3.70
2022-11-25T11:50:30.121Z,3.75
2022-11-25T11:56:26.712Z,3.80
2022-11-25T12:01:41.834Z,3.88
2022-11-25T12:06:59.661Z,3.96
2022-11-25T12:12:13.036Z,4.06
2022-11-25T12:17:24.799Z,4.18
2022-11-25T12:22:38.806Z,4.27
2022-11-25T12:27:51.935Z,4.34
2022-11-25T12:33:08.778Z,4.41
2022-11-25T12:38:24.681Z,4.43
2022-11-25T12:43:40.880Z,4.48
2022-11-25T12:48:48.040Z,4.52
2022-11-25T12:53:59.843Z,4.50
2022-11-25T12:59:31.969Z,4.46
2022-11-25T13:05:25.551Z,4.44
2022-11-25T13:11:05.500Z,4.47
2022-11-25T13:16:14.198Z,4.54
2022-11-25T13:21:24.440Z,4.61
2022-11-25T13:26:54.636Z,4.67
2022-11-25T13:32:03.344Z,4.73
2022-11-25T13:37:41.062Z,4.78
2022-11-25T13:42:48.800Z,4.80
2022-11-25T13:48:05.197Z,4.78
2022-11-25T13:53:26.194Z,4.72
2022-11-25T13:58:36.184Z,4.66
2022-11-25T14:03:58.384Z,4.64
2022-11-25T14:09:16.591Z,4.65
2022-11-25T14:14:49.758Z,4.64
2022-11-25T14:20:15.997Z,4.60
2022-11-25T14:25:27.059Z,4.59
2022-11-25T14:30:35.546Z,4.56
2022-11-25T14:35:49.031Z,4.53
2022-11-25T14:41:00.221Z,4.50
2022-11-25T14:46:16.794Z,4.46
2022-11-25T14:51:28.537Z,4.43
2022-11-25T14:56:38.221Z,4.41
2022-11-25T15:01:56.357Z,4.41
2022-11-25T15:07:03.439Z,4.40
2022-11-25T15:12:18.116Z,4.39
2022-11-25T15:17:30.295Z,4.34
2022-11-25T15:22:37.815Z,4.29
2022-11-25T15:27:50.924Z,4.23
2022-11-25T15:33:01.154Z,4.16
2022-11-25T15:38:35.704Z,4.04
2022-11-25T15:43:46.990Z,3.94
2022-11-25T15:48:58.797Z,3.88
2022-11-25T15:54:14.387Z,3.82
2022-11-25T15:59:49.352Z,3.79
2022-11-25T16:05:15.781Z,3.77
2022-11-25T16:10:25.224Z,3.75
2022-11-25T16:15:47.689Z,3.75
2022-11-25T16:21:00.626Z,3.73
2022-11-25T16:26:18.708Z,3.72
2022-11-25T16:31:26.908Z,3.69
2022-11-25T16:36:34.106Z,3.58
2022-11-25T16:41:40.105Z,3.56
2022-11-25T16:46:50.812Z,3.56
2022-11-25T16:52:00.883Z,3.54
2022-11-25T16:57:14.993Z,3.54
2022-11-25T17:02:24.651Z,3.56
2022-11-25T17:07:34.041Z,3.49
2022-11-25T17:12:44.138Z,3.45
2022-11-25T17:17:52.736Z,3.43
2022-11-25T17:23:00.362Z,3.43
2022-11-25T17:28:07.742Z,3.42
2022-11-25T17:33:18.430Z,3.38
2022-11-25T17:38:25.843Z,3.37
2022-11-25T17:43:34.720Z,3.36
2022-11-25T17:48:43.352Z,3.32
2022-11-25T17:53:51.518Z,3.33
2022-11-25T17:59:03.185Z,3.40
2022-11-25T18:04:18.862Z,3.38
2022-11-25T18:09:26.375Z,3.37
2022-11-25T18:14:33.110Z,3.40
2022-11-25T18:19:40.045Z,3.41
2022-11-25T18:24:47.372Z,3.29
2022-11-25T18:29:55.111Z,3.16
2022-11-25T18:35:02.085Z,3.14
2022-11-25T19:00:33.084Z,3.10
2022-11-25T19:05:40.930Z,3.21
2022-11-25T19:15:52.808Z,3.30
2022-11-25T19:21:00.155Z,3.20
2022-11-25T19:26:14.737Z,3.15
2022-11-25T19:31:22.767Z,3.18
2022-11-25T19:36:31.953Z,3.20
2022-11-25T19:41:38.817Z,3.18
2022-11-25T19:47:13.648Z,3.19
2022-11-25T19:52:20.610Z,3.27
2022-11-25T20:00:54.459Z,3.44
2022-11-25T20:06:02.207Z,3.45
2022-11-25T20:11:10.358Z,3.47
2022-11-25T20:16:22.499Z,3.52
2022-11-25T20:21:34.798Z,3.53
2022-11-25T20:26:46.186Z,3.58
2022-11-25T20:31:53.704Z,3.56
2022-11-25T20:37:01.509Z,3.52
2022-11-25T20:42:10.762Z,3.42
2022-11-25T20:47:20.042Z,3.43
2022-11-25T20:52:32.240Z,3.43
2022-11-25T20:57:39.370Z,3.44
2022-11-25T21:02:44.859Z,3.42
2022-11-25T21:07:52.981Z,3.35
2022-11-25T21:13:00.320Z,3.33
2022-11-25T21:18:06.125Z,3.33
2022-11-25T21:23:21.011Z,3.32
2022-11-25T21:28:30.201Z,3.33
2022-11-25T21:33:37.196Z,3.35
2022-11-25T21:38:45.344Z,3.38
2022-11-25T21:43:52.828Z,3.44
2022-11-25T21:48:59.920Z,3.41
2022-11-25T21:54:05.793Z,3.39
2022-11-25T21:59:21.213Z,3.46
2022-11-25T22:04:28.577Z,3.50
2022-11-25T22:09:35.659Z,3.47
2022-11-25T22:14:41.269Z,3.39
2022-11-25T22:19:48.664Z,3.38
2022-11-25T22:24:55.608Z,3.33
2022-11-25T22:30:03.284Z,3.30
2022-11-25T22:35:17.026Z,3.28
2022-11-25T22:40:25.277Z,3.27
2022-11-25T22:45:35.602Z,3.28
2022-11-25T22:50:44.479Z,3.30
2022-11-25T22:55:53.905Z,3.31
2022-11-25T23:01:01.214Z,3.25
2022-11-25T23:06:11.814Z,3.20
2022-11-25T23:11:21.873Z,3.20
2022-11-25T23:16:29.283Z,3.21
2022-11-25T23:21:34.805Z,3.22
2022-11-25T23:30:24.213Z,3.14
2022-11-25T23:35:35.038Z,3.12
2022-11-25T23:40:38.920Z,3.12
2022-11-25T23:45:49.304Z,3.11
2022-11-25T23:50:55.571Z,3.15
2022-11-25T23:55:59.525Z,3.11
